Taylorstown, Pennsylvania
Current Conditions -  °F | °C
As of 7:55 PM on Wednesday 17 Dec 2014 (Local Time) from KAFJ Reporting Station
Overcast Overcast  
Wind Chill: 21°   Ceiling: 2400
Heat Index: 30°   Visibility: 10mi
Dew Point: 21°   Wind: 12mph
Humidity: 69%   Direction: 260°W
Pressure: 30.13"   Gusts: 17mph
Location:  40.16°N, 80.38°W
Report Text: KAFJ 180055Z AUTO 26010G15KT 10SM OVC024 M01/M06 A3013 RMK AO1
Loading
Personal Weather Stations






























Interactive Weather Map New forecast layout! Learn more

10-Day Weather Forecast

Advertisements
Track Severe Weather on mobile